sensor_id;sensor_type;location;lat;lon;timestamp;P1;durP1;ratioP1;P2;durP2;ratioP2
73642;SDS011;61938;48.652;9.292;2024-03-06T00:02:24;18.90;;;9.15;;
73642;SDS011;61938;48.652;9.292;2024-03-06T00:04:50;17.42;;;8.73;;
73642;SDS011;61938;48.652;9.292;2024-03-06T00:07:15;15.68;;;9.05;;
73642;SDS011;61938;48.652;9.292;2024-03-06T00:09:41;16.02;;;8.82;;
73642;SDS011;61938;48.652;9.292;2024-03-06T00:12:06;12.95;;;8.05;;
73642;SDS011;61938;48.652;9.292;2024-03-06T00:14:32;15.52;;;8.27;;
73642;SDS011;61938;48.652;9.292;2024-03-06T00:16:57;15.45;;;8.85;;
73642;SDS011;61938;48.652;9.292;2024-03-06T00:19:23;15.68;;;9.15;;
73642;SDS011;61938;48.652;9.292;2024-03-06T00:21:48;16.20;;;8.70;;
73642;SDS011;61938;48.652;9.292;2024-03-06T00:24:14;14.93;;;7.40;;
73642;SDS011;61938;48.652;9.292;2024-03-06T00:26:41;13.05;;;7.93;;
73642;SDS011;61938;48.652;9.292;2024-03-06T00:29:07;12.68;;;7.90;;
73642;SDS011;61938;48.652;9.292;2024-03-06T00:31:33;15.20;;;8.07;;
73642;SDS011;61938;48.652;9.292;2024-03-06T00:33:59;13.43;;;7.95;;
73642;SDS011;61938;48.652;9.292;2024-03-06T00:36:25;14.63;;;8.55;;
73642;SDS011;61938;48.652;9.292;2024-03-06T00:38:50;13.55;;;7.50;;
73642;SDS011;61938;48.652;9.292;2024-03-06T00:41:16;14.55;;;7.80;;
73642;SDS011;61938;48.652;9.292;2024-03-06T00:43:41;13.88;;;7.28;;
73642;SDS011;61938;48.652;9.292;2024-03-06T00:46:07;12.43;;;7.25;;
73642;SDS011;61938;48.652;9.292;2024-03-06T00:48:32;12.40;;;7.15;;
73642;SDS011;61938;48.652;9.292;2024-03-06T00:50:58;14.52;;;7.88;;
73642;SDS011;61938;48.652;9.292;2024-03-06T00:53:23;11.52;;;7.10;;
73642;SDS011;61938;48.652;9.292;2024-03-06T00:55:49;13.50;;;7.28;;
73642;SDS011;61938;48.652;9.292;2024-03-06T00:58:15;15.45;;;7.10;;
73642;SDS011;61938;48.652;9.292;2024-03-06T01:00:40;11.80;;;7.53;;
73642;SDS011;61938;48.652;9.292;2024-03-06T01:03:06;18.10;;;8.05;;
73642;SDS011;61938;48.652;9.292;2024-03-06T01:05:31;11.60;;;6.65;;
73642;SDS011;61938;48.652;9.292;2024-03-06T01:07:57;12.45;;;6.85;;
73642;SDS011;61938;48.652;9.292;2024-03-06T01:10:24;16.58;;;7.28;;
73642;SDS011;61938;48.652;9.292;2024-03-06T01:12:50;13.50;;;7.38;;
73642;SDS011;61938;48.652;9.292;2024-03-06T01:15:16;16.83;;;7.95;;
73642;SDS011;61938;48.652;9.292;2024-03-06T01:17:41;13.20;;;7.40;;
73642;SDS011;61938;48.652;9.292;2024-03-06T01:20:07;11.13;;;6.65;;
73642;SDS011;61938;48.652;9.292;2024-03-06T01:22:33;12.50;;;7.22;;
73642;SDS011;61938;48.652;9.292;2024-03-06T01:24:59;11.85;;;6.93;;
73642;SDS011;61938;48.652;9.292;2024-03-06T01:27:25;14.10;;;7.28;;
73642;SDS011;61938;48.652;9.292;2024-03-06T01:29:51;13.15;;;6.90;;
73642;SDS011;61938;48.652;9.292;2024-03-06T01:32:17;10.70;;;6.85;;
73642;SDS011;61938;48.652;9.292;2024-03-06T01:34:42;13.18;;;7.07;;
73642;SDS011;61938;48.652;9.292;2024-03-06T01:37:08;11.20;;;6.65;;
73642;SDS011;61938;48.652;9.292;2024-03-06T01:39:34;13.75;;;6.60;;
73642;SDS011;61938;48.652;9.292;2024-03-06T01:42:00;13.15;;;7.13;;
73642;SDS011;61938;48.652;9.292;2024-03-06T01:44:26;10.43;;;6.43;;
73642;SDS011;61938;48.652;9.292;2024-03-06T01:46:58;10.30;;;6.75;;
73642;SDS011;61938;48.652;9.292;2024-03-06T01:49:23;14.65;;;6.80;;
73642;SDS011;61938;48.652;9.292;2024-03-06T01:51:54;12.35;;;6.93;;
73642;SDS011;61938;48.652;9.292;2024-03-06T01:54:22;13.57;;;6.72;;
73642;SDS011;61938;48.652;9.292;2024-03-06T01:56:49;12.57;;;6.70;;
73642;SDS011;61938;48.652;9.292;2024-03-06T01:59:16;13.68;;;7.30;;
73642;SDS011;61938;48.652;9.292;2024-03-06T02:01:43;14.32;;;6.60;;
73642;SDS011;61938;48.652;9.292;2024-03-06T02:04:09;11.10;;;6.60;;
73642;SDS011;61938;48.652;9.292;2024-03-06T02:06:37;12.98;;;7.00;;
73642;SDS011;61938;48.652;9.292;2024-03-06T02:09:03;16.85;;;7.18;;
73642;SDS011;61938;48.652;9.292;2024-03-06T02:11:29;13.02;;;6.70;;
73642;SDS011;61938;48.652;9.292;2024-03-06T02:13:55;12.93;;;6.70;;
73642;SDS011;61938;48.652;9.292;2024-03-06T02:16:20;15.20;;;6.47;;
73642;SDS011;61938;48.652;9.292;2024-03-06T02:18:53;14.07;;;7.13;;
73642;SDS011;61938;48.652;9.292;2024-03-06T02:21:22;13.85;;;6.75;;
73642;SDS011;61938;48.652;9.292;2024-03-06T02:23:49;10.73;;;6.53;;
73642;SDS011;61938;48.652;9.292;2024-03-06T02:26:19;12.45;;;6.95;;
73642;SDS011;61938;48.652;9.292;2024-03-06T02:28:51;13.25;;;7.03;;
73642;SDS011;61938;48.652;9.292;2024-03-06T02:31:18;13.20;;;6.97;;
73642;SDS011;61938;48.652;9.292;2024-03-06T02:33:44;12.65;;;6.82;;
73642;SDS011;61938;48.652;9.292;2024-03-06T02:36:12;13.93;;;7.10;;
73642;SDS011;61938;48.652;9.292;2024-03-06T02:38:37;11.93;;;6.78;;
73642;SDS011;61938;48.652;9.292;2024-03-06T02:41:03;11.02;;;6.95;;
73642;SDS011;61938;48.652;9.292;2024-03-06T02:43:29;11.85;;;6.85;;
73642;SDS011;61938;48.652;9.292;2024-03-06T02:45:54;11.77;;;6.43;;
73642;SDS011;61938;48.652;9.292;2024-03-06T02:48:20;12.27;;;6.93;;
73642;SDS011;61938;48.652;9.292;2024-03-06T02:50:45;9.90;;;6.20;;
73642;SDS011;61938;48.652;9.292;2024-03-06T02:53:11;13.30;;;6.90;;
73642;SDS011;61938;48.652;9.292;2024-03-06T02:55:37;14.63;;;7.05;;
73642;SDS011;61938;48.652;9.292;2024-03-06T02:58:02;12.77;;;6.93;;
73642;SDS011;61938;48.652;9.292;2024-03-06T03:00:28;11.23;;;6.88;;
73642;SDS011;61938;48.652;9.292;2024-03-06T03:02:54;10.90;;;6.30;;
73642;SDS011;61938;48.652;9.292;2024-03-06T03:05:19;13.88;;;7.13;;
73642;SDS011;61938;48.652;9.292;2024-03-06T03:07:45;9.38;;;6.57;;
73642;SDS011;61938;48.652;9.292;2024-03-06T03:10:10;12.95;;;7.03;;
73642;SDS011;61938;48.652;9.292;2024-03-06T03:12:38;12.88;;;6.25;;
73642;SDS011;61938;48.652;9.292;2024-03-06T03:15:04;13.02;;;6.18;;
73642;SDS011;61938;48.652;9.292;2024-03-06T03:17:29;9.93;;;5.85;;
73642;SDS011;61938;48.652;9.292;2024-03-06T03:19:55;9.00;;;5.30;;
73642;SDS011;61938;48.652;9.292;2024-03-06T03:22:21;10.50;;;5.80;;
73642;SDS011;61938;48.652;9.292;2024-03-06T03:24:46;11.73;;;6.38;;
73642;SDS011;61938;48.652;9.292;2024-03-06T03:27:12;9.38;;;5.32;;
73642;SDS011;61938;48.652;9.292;2024-03-06T03:29:38;11.65;;;5.97;;
73642;SDS011;61938;48.652;9.292;2024-03-06T03:32:05;12.73;;;6.85;;
73642;SDS011;61938;48.652;9.292;2024-03-06T03:34:30;9.77;;;5.30;;
73642;SDS011;61938;48.652;9.292;2024-03-06T03:36:56;7.95;;;5.55;;
73642;SDS011;61938;48.652;9.292;2024-03-06T03:39:21;10.27;;;5.50;;
73642;SDS011;61938;48.652;9.292;2024-03-06T03:41:49;11.57;;;5.80;;
73642;SDS011;61938;48.652;9.292;2024-03-06T03:44:15;14.60;;;6.38;;
73642;SDS011;61938;48.652;9.292;2024-03-06T03:46:41;13.57;;;6.72;;
73642;SDS011;61938;48.652;9.292;2024-03-06T03:49:08;10.90;;;5.75;;
73642;SDS011;61938;48.652;9.292;2024-03-06T03:51:34;14.48;;;6.40;;
73642;SDS011;61938;48.652;9.292;2024-03-06T03:54:00;9.23;;;5.70;;
73642;SDS011;61938;48.652;9.292;2024-03-06T03:56:26;13.27;;;5.88;;
73642;SDS011;61938;48.652;9.292;2024-03-06T03:58:52;12.35;;;6.40;;
73642;SDS011;61938;48.652;9.292;2024-03-06T04:01:18;13.35;;;6.72;;
73642;SDS011;61938;48.652;9.292;2024-03-06T04:03:43;11.57;;;6.70;;
73642;SDS011;61938;48.652;9.292;2024-03-06T04:06:09;9.63;;;5.50;;
73642;SDS011;61938;48.652;9.292;2024-03-06T04:08:35;9.85;;;5.50;;
73642;SDS011;61938;48.652;9.292;2024-03-06T04:11:02;10.80;;;6.13;;
73642;SDS011;61938;48.652;9.292;2024-03-06T04:13:28;12.68;;;6.45;;
73642;SDS011;61938;48.652;9.292;2024-03-06T04:15:54;10.43;;;6.20;;
73642;SDS011;61938;48.652;9.292;2024-03-06T04:18:20;10.07;;;6.50;;
73642;SDS011;61938;48.652;9.292;2024-03-06T04:20:46;13.07;;;7.32;;
73642;SDS011;61938;48.652;9.292;2024-03-06T04:23:11;15.68;;;8.10;;
73642;SDS011;61938;48.652;9.292;2024-03-06T04:25:37;12.02;;;7.35;;
73642;SDS011;61938;48.652;9.292;2024-03-06T04:28:04;11.00;;;7.22;;
73642;SDS011;61938;48.652;9.292;2024-03-06T04:30:32;10.98;;;6.18;;
73642;SDS011;61938;48.652;9.292;2024-03-06T04:32:58;11.45;;;6.10;;
73642;SDS011;61938;48.652;9.292;2024-03-06T04:35:24;11.70;;;6.07;;
73642;SDS011;61938;48.652;9.292;2024-03-06T04:37:49;9.63;;;5.85;;
73642;SDS011;61938;48.652;9.292;2024-03-06T04:40:15;9.48;;;6.45;;
73642;SDS011;61938;48.652;9.292;2024-03-06T04:42:44;9.35;;;5.63;;
73642;SDS011;61938;48.652;9.292;2024-03-06T04:45:11;9.52;;;5.60;;
73642;SDS011;61938;48.652;9.292;2024-03-06T04:47:39;10.38;;;5.82;;
73642;SDS011;61938;48.652;9.292;2024-03-06T04:50:08;9.32;;;5.13;;
73642;SDS011;61938;48.652;9.292;2024-03-06T04:52:36;10.80;;;5.75;;
73642;SDS011;61938;48.652;9.292;2024-03-06T04:55:06;10.68;;;5.68;;
73642;SDS011;61938;48.652;9.292;2024-03-06T04:57:32;8.95;;;5.35;;
73642;SDS011;61938;48.652;9.292;2024-03-06T04:59:58;13.13;;;6.72;;
73642;SDS011;61938;48.652;9.292;2024-03-06T05:02:23;21.48;;;8.60;;
73642;SDS011;61938;48.652;9.292;2024-03-06T05:04:51;13.50;;;7.63;;
73642;SDS011;61938;48.652;9.292;2024-03-06T05:07:16;17.02;;;8.75;;
73642;SDS011;61938;48.652;9.292;2024-03-06T05:09:42;15.95;;;6.70;;
73642;SDS011;61938;48.652;9.292;2024-03-06T05:12:07;11.98;;;6.40;;
73642;SDS011;61938;48.652;9.292;2024-03-06T05:14:33;11.73;;;5.70;;
73642;SDS011;61938;48.652;9.292;2024-03-06T05:16:58;10.77;;;5.82;;
73642;SDS011;61938;48.652;9.292;2024-03-06T05:19:24;10.63;;;4.93;;
73642;SDS011;61938;48.652;9.292;2024-03-06T05:21:56;8.95;;;5.03;;
73642;SDS011;61938;48.652;9.292;2024-03-06T05:24:25;10.48;;;4.97;;
73642;SDS011;61938;48.652;9.292;2024-03-06T05:26:50;7.90;;;4.57;;
73642;SDS011;61938;48.652;9.292;2024-03-06T05:29:16;11.50;;;5.80;;
73642;SDS011;61938;48.652;9.292;2024-03-06T05:31:48;9.82;;;4.70;;
73642;SDS011;61938;48.652;9.292;2024-03-06T05:34:14;8.38;;;4.95;;
73642;SDS011;61938;48.652;9.292;2024-03-06T05:36:39;8.98;;;4.80;;
73642;SDS011;61938;48.652;9.292;2024-03-06T05:39:05;8.05;;;5.18;;
73642;SDS011;61938;48.652;9.292;2024-03-06T05:41:32;8.07;;;4.70;;
73642;SDS011;61938;48.652;9.292;2024-03-06T05:43:58;7.90;;;4.70;;
73642;SDS011;61938;48.652;9.292;2024-03-06T05:46:23;10.10;;;5.18;;
73642;SDS011;61938;48.652;9.292;2024-03-06T05:48:55;8.52;;;4.90;;
73642;SDS011;61938;48.652;9.292;2024-03-06T05:51:21;7.47;;;4.60;;
73642;SDS011;61938;48.652;9.292;2024-03-06T05:53:46;10.35;;;5.18;;
73642;SDS011;61938;48.652;9.292;2024-03-06T05:56:12;11.77;;;5.95;;
73642;SDS011;61938;48.652;9.292;2024-03-06T05:58:37;11.23;;;5.70;;
73642;SDS011;61938;48.652;9.292;2024-03-06T06:01:03;11.23;;;5.80;;
73642;SDS011;61938;48.652;9.292;2024-03-06T06:03:29;11.15;;;6.30;;
73642;SDS011;61938;48.652;9.292;2024-03-06T06:05:55;11.20;;;6.10;;
73642;SDS011;61938;48.652;9.292;2024-03-06T06:08:21;9.85;;;5.85;;
73642;SDS011;61938;48.652;9.292;2024-03-06T06:10:47;10.05;;;5.80;;
73642;SDS011;61938;48.652;9.292;2024-03-06T06:13:12;15.55;;;6.45;;
73642;SDS011;61938;48.652;9.292;2024-03-06T06:15:38;12.90;;;7.93;;
73642;SDS011;61938;48.652;9.292;2024-03-06T06:18:03;14.07;;;7.03;;
73642;SDS011;61938;48.652;9.292;2024-03-06T06:20:29;14.88;;;7.25;;
73642;SDS011;61938;48.652;9.292;2024-03-06T06:22:55;14.75;;;7.57;;
73642;SDS011;61938;48.652;9.292;2024-03-06T06:25:21;15.27;;;6.93;;
73642;SDS011;61938;48.652;9.292;2024-03-06T06:27:47;12.10;;;6.70;;
73642;SDS011;61938;48.652;9.292;2024-03-06T06:30:14;12.70;;;6.65;;
73642;SDS011;61938;48.652;9.292;2024-03-06T06:32:40;12.57;;;6.88;;
73642;SDS011;61938;48.652;9.292;2024-03-06T06:35:06;13.38;;;7.55;;
73642;SDS011;61938;48.652;9.292;2024-03-06T06:37:34;11.43;;;6.53;;
73642;SDS011;61938;48.652;9.292;2024-03-06T06:39:59;14.10;;;7.70;;
73642;SDS011;61938;48.652;9.292;2024-03-06T06:42:28;18.95;;;9.93;;
73642;SDS011;61938;48.652;9.292;2024-03-06T06:44:54;15.02;;;8.15;;
73642;SDS011;61938;48.652;9.292;2024-03-06T06:47:19;15.57;;;7.72;;
73642;SDS011;61938;48.652;9.292;2024-03-06T06:49:45;16.25;;;7.15;;
73642;SDS011;61938;48.652;9.292;2024-03-06T06:52:10;15.88;;;7.57;;
73642;SDS011;61938;48.652;9.292;2024-03-06T06:54:36;13.85;;;6.72;;
73642;SDS011;61938;48.652;9.292;2024-03-06T06:57:01;13.02;;;6.28;;
73642;SDS011;61938;48.652;9.292;2024-03-06T06:59:28;18.50;;;7.25;;
73642;SDS011;61938;48.652;9.292;2024-03-06T07:01:53;15.13;;;7.60;;
73642;SDS011;61938;48.652;9.292;2024-03-06T07:04:19;15.98;;;8.10;;
73642;SDS011;61938;48.652;9.292;2024-03-06T07:06:45;16.60;;;8.75;;
73642;SDS011;61938;48.652;9.292;2024-03-06T07:09:11;20.90;;;10.13;;
73642;SDS011;61938;48.652;9.292;2024-03-06T07:11:40;20.50;;;10.15;;
73642;SDS011;61938;48.652;9.292;2024-03-06T07:14:06;24.15;;;11.10;;
73642;SDS011;61938;48.652;9.292;2024-03-06T07:16:32;23.27;;;10.70;;
73642;SDS011;61938;48.652;9.292;2024-03-06T07:18:57;21.85;;;11.77;;
73642;SDS011;61938;48.652;9.292;2024-03-06T07:21:24;17.55;;;9.80;;
73642;SDS011;61938;48.652;9.292;2024-03-06T07:23:50;18.45;;;9.55;;
73642;SDS011;61938;48.652;9.292;2024-03-06T07:26:16;13.43;;;7.75;;
73642;SDS011;61938;48.652;9.292;2024-03-06T07:28:41;12.63;;;7.28;;
73642;SDS011;61938;48.652;9.292;2024-03-06T07:31:07;14.82;;;7.00;;
73642;SDS011;61938;48.652;9.292;2024-03-06T07:33:32;15.98;;;7.60;;
73642;SDS011;61938;48.652;9.292;2024-03-06T07:35:59;22.02;;;9.27;;
73642;SDS011;61938;48.652;9.292;2024-03-06T07:38:24;20.83;;;9.73;;
73642;SDS011;61938;48.652;9.292;2024-03-06T07:40:50;18.65;;;9.32;;
73642;SDS011;61938;48.652;9.292;2024-03-06T07:43:15;16.23;;;8.05;;
73642;SDS011;61938;48.652;9.292;2024-03-06T07:45:47;16.13;;;8.65;;
73642;SDS011;61938;48.652;9.292;2024-03-06T07:48:14;14.50;;;7.32;;
73642;SDS011;61938;48.652;9.292;2024-03-06T07:50:39;18.35;;;8.77;;
73642;SDS011;61938;48.652;9.292;2024-03-06T07:53:05;18.05;;;8.68;;
73642;SDS011;61938;48.652;9.292;2024-03-06T07:55:31;14.85;;;8.02;;
73642;SDS011;61938;48.652;9.292;2024-03-06T07:57:56;14.25;;;7.53;;
73642;SDS011;61938;48.652;9.292;2024-03-06T08:00:22;16.13;;;8.43;;
73642;SDS011;61938;48.652;9.292;2024-03-06T08:02:48;16.13;;;8.50;;
73642;SDS011;61938;48.652;9.292;2024-03-06T08:05:16;19.92;;;9.63;;
73642;SDS011;61938;48.652;9.292;2024-03-06T08:07:42;19.48;;;8.68;;
73642;SDS011;61938;48.652;9.292;2024-03-06T08:10:09;19.77;;;9.18;;
73642;SDS011;61938;48.652;9.292;2024-03-06T08:12:38;19.52;;;8.68;;
73642;SDS011;61938;48.652;9.292;2024-03-06T08:15:07;16.27;;;9.73;;
73642;SDS011;61938;48.652;9.292;2024-03-06T08:17:36;23.00;;;12.48;;
73642;SDS011;61938;48.652;9.292;2024-03-06T08:20:03;26.38;;;13.55;;
73642;SDS011;61938;48.652;9.292;2024-03-06T08:22:42;29.45;;;15.52;;
73642;SDS011;61938;48.652;9.292;2024-03-06T08:25:08;29.92;;;17.05;;
73642;SDS011;61938;48.652;9.292;2024-03-06T08:27:34;35.58;;;18.38;;
73642;SDS011;61938;48.652;9.292;2024-03-06T08:30:01;31.20;;;16.75;;
73642;SDS011;61938;48.652;9.292;2024-03-06T08:32:29;28.75;;;15.90;;
73642;SDS011;61938;48.652;9.292;2024-03-06T08:34:56;23.23;;;14.00;;
73642;SDS011;61938;48.652;9.292;2024-03-06T08:37:21;26.00;;;13.82;;
73642;SDS011;61938;48.652;9.292;2024-03-06T08:39:47;24.02;;;13.20;;
73642;SDS011;61938;48.652;9.292;2024-03-06T08:42:13;24.80;;;13.23;;
73642;SDS011;61938;48.652;9.292;2024-03-06T08:44:43;19.90;;;11.48;;
73642;SDS011;61938;48.652;9.292;2024-03-06T08:47:09;24.60;;;12.00;;
73642;SDS011;61938;48.652;9.292;2024-03-06T08:49:34;20.35;;;11.98;;
73642;SDS011;61938;48.652;9.292;2024-03-06T08:52:00;24.50;;;12.05;;
73642;SDS011;61938;48.652;9.292;2024-03-06T08:54:25;20.58;;;11.90;;
73642;SDS011;61938;48.652;9.292;2024-03-06T08:56:51;21.48;;;10.60;;
73642;SDS011;61938;48.652;9.292;2024-03-06T08:59:22;18.15;;;11.00;;
73642;SDS011;61938;48.652;9.292;2024-03-06T09:01:52;22.23;;;11.75;;
73642;SDS011;61938;48.652;9.292;2024-03-06T09:04:19;27.00;;;12.35;;
73642;SDS011;61938;48.652;9.292;2024-03-06T09:06:44;23.13;;;12.73;;
73642;SDS011;61938;48.652;9.292;2024-03-06T09:09:10;18.85;;;10.90;;
73642;SDS011;61938;48.652;9.292;2024-03-06T09:11:35;15.55;;;10.27;;
73642;SDS011;61938;48.652;9.292;2024-03-06T09:14:01;20.30;;;11.00;;
73642;SDS011;61938;48.652;9.292;2024-03-06T09:16:26;19.90;;;10.82;;
73642;SDS011;61938;48.652;9.292;2024-03-06T09:18:52;18.27;;;10.95;;
73642;SDS011;61938;48.652;9.292;2024-03-06T09:21:18;21.08;;;10.63;;
73642;SDS011;61938;48.652;9.292;2024-03-06T09:23:44;24.55;;;11.57;;
73642;SDS011;61938;48.652;9.292;2024-03-06T09:26:10;19.73;;;9.70;;
73642;SDS011;61938;48.652;9.292;2024-03-06T09:28:42;19.05;;;8.82;;
73642;SDS011;61938;48.652;9.292;2024-03-06T09:31:07;18.83;;;9.93;;
73642;SDS011;61938;48.652;9.292;2024-03-06T09:33:33;19.35;;;10.35;;
73642;SDS011;61938;48.652;9.292;2024-03-06T09:35:59;20.48;;;10.32;;
73642;SDS011;61938;48.652;9.292;2024-03-06T09:38:24;18.80;;;9.52;;
73642;SDS011;61938;48.652;9.292;2024-03-06T09:40:50;16.52;;;10.10;;
73642;SDS011;61938;48.652;9.292;2024-03-06T09:43:16;19.38;;;10.25;;
73642;SDS011;61938;48.652;9.292;2024-03-06T09:45:44;18.25;;;9.98;;
73642;SDS011;61938;48.652;9.292;2024-03-06T09:48:13;23.13;;;11.00;;
73642;SDS011;61938;48.652;9.292;2024-03-06T09:50:38;17.30;;;10.32;;
73642;SDS011;61938;48.652;9.292;2024-03-06T09:53:10;20.02;;;11.65;;
73642;SDS011;61938;48.652;9.292;2024-03-06T09:55:39;19.67;;;10.77;;
73642;SDS011;61938;48.652;9.292;2024-03-06T09:58:07;21.52;;;11.32;;
73642;SDS011;61938;48.652;9.292;2024-03-06T10:00:33;21.77;;;10.82;;
73642;SDS011;61938;48.652;9.292;2024-03-06T10:03:00;17.00;;;10.32;;
73642;SDS011;61938;48.652;9.292;2024-03-06T10:05:30;24.08;;;11.95;;
73642;SDS011;61938;48.652;9.292;2024-03-06T10:07:57;20.75;;;10.63;;
73642;SDS011;61938;48.652;9.292;2024-03-06T10:10:31;22.33;;;10.65;;
73642;SDS011;61938;48.652;9.292;2024-03-06T10:12:57;17.58;;;9.85;;
73642;SDS011;61938;48.652;9.292;2024-03-06T10:15:24;16.30;;;9.77;;
73642;SDS011;61938;48.652;9.292;2024-03-06T10:17:51;16.85;;;9.77;;
73642;SDS011;61938;48.652;9.292;2024-03-06T10:20:18;20.55;;;10.32;;
73642;SDS011;61938;48.652;9.292;2024-03-06T10:22:48;15.48;;;9.50;;
73642;SDS011;61938;48.652;9.292;2024-03-06T10:25:21;19.98;;;10.23;;
73642;SDS011;61938;48.652;9.292;2024-03-06T10:28:03;21.35;;;10.85;;
73642;SDS011;61938;48.652;9.292;2024-03-06T10:30:30;27.48;;;11.57;;
73642;SDS011;61938;48.652;9.292;2024-03-06T10:32:56;25.00;;;12.60;;
73642;SDS011;61938;48.652;9.292;2024-03-06T10:35:21;24.58;;;10.93;;
73642;SDS011;61938;48.652;9.292;2024-03-06T10:37:47;21.10;;;10.88;;
73642;SDS011;61938;48.652;9.292;2024-03-06T10:40:14;20.00;;;10.73;;
73642;SDS011;61938;48.652;9.292;2024-03-06T10:42:42;20.58;;;11.00;;
73642;SDS011;61938;48.652;9.292;2024-03-06T10:45:09;16.73;;;10.40;;
73642;SDS011;61938;48.652;9.292;2024-03-06T10:47:38;18.25;;;10.07;;
73642;SDS011;61938;48.652;9.292;2024-03-06T10:50:05;20.90;;;10.32;;
73642;SDS011;61938;48.652;9.292;2024-03-06T10:52:35;17.17;;;10.10;;
73642;SDS011;61938;48.652;9.292;2024-03-06T10:55:03;21.23;;;10.63;;
73642;SDS011;61938;48.652;9.292;2024-03-06T10:57:29;18.42;;;11.45;;
73642;SDS011;61938;48.652;9.292;2024-03-06T10:59:56;19.38;;;11.18;;
73642;SDS011;61938;48.652;9.292;2024-03-06T11:02:24;21.90;;;12.52;;
73642;SDS011;61938;48.652;9.292;2024-03-06T11:04:52;21.20;;;13.05;;
73642;SDS011;61938;48.652;9.292;2024-03-06T11:07:18;27.40;;;12.68;;
73642;SDS011;61938;48.652;9.292;2024-03-06T11:09:44;22.20;;;12.57;;
73642;SDS011;61938;48.652;9.292;2024-03-06T11:12:13;21.17;;;12.13;;
73642;SDS011;61938;48.652;9.292;2024-03-06T11:14:57;21.00;;;12.70;;
73642;SDS011;61938;48.652;9.292;2024-03-06T11:17:25;28.38;;;14.45;;
73642;SDS011;61938;48.652;9.292;2024-03-06T11:28:17;24.58;;;12.82;;
73642;SDS011;61938;48.652;9.292;2024-03-06T11:30:47;26.42;;;14.85;;
73642;SDS011;61938;48.652;9.292;2024-03-06T11:33:16;27.13;;;14.57;;
73642;SDS011;61938;48.652;9.292;2024-03-06T11:38:58;23.85;;;13.75;;
73642;SDS011;61938;48.652;9.292;2024-03-06T11:41:29;26.45;;;13.50;;
73642;SDS011;61938;48.652;9.292;2024-03-06T11:43:56;22.60;;;13.63;;
73642;SDS011;61938;48.652;9.292;2024-03-06T11:46:42;24.48;;;13.48;;
73642;SDS011;61938;48.652;9.292;2024-03-06T11:49:20;26.95;;;13.63;;
73642;SDS011;61938;48.652;9.292;2024-03-06T11:51:47;26.35;;;14.88;;
73642;SDS011;61938;48.652;9.292;2024-03-06T11:54:19;25.40;;;14.35;;
73642;SDS011;61938;48.652;9.292;2024-03-06T11:56:49;24.95;;;14.23;;
73642;SDS011;61938;48.652;9.292;2024-03-06T11:59:16;29.48;;;15.48;;
73642;SDS011;61938;48.652;9.292;2024-03-06T12:01:42;32.22;;;16.73;;
73642;SDS011;61938;48.652;9.292;2024-03-06T12:04:07;28.15;;;15.50;;
73642;SDS011;61938;48.652;9.292;2024-03-06T12:06:33;31.00;;;16.20;;
73642;SDS011;61938;48.652;9.292;2024-03-06T12:08:59;31.05;;;16.08;;
73642;SDS011;61938;48.652;9.292;2024-03-06T12:11:25;31.35;;;16.58;;
73642;SDS011;61938;48.652;9.292;2024-03-06T12:13:54;27.20;;;15.48;;
73642;SDS011;61938;48.652;9.292;2024-03-06T12:16:21;31.55;;;16.48;;
73642;SDS011;61938;48.652;9.292;2024-03-06T12:18:46;33.15;;;16.65;;
73642;SDS011;61938;48.652;9.292;2024-03-06T12:21:19;31.88;;;16.48;;
73642;SDS011;61938;48.652;9.292;2024-03-06T12:23:44;29.67;;;16.33;;
73642;SDS011;61938;48.652;9.292;2024-03-06T12:26:10;28.77;;;16.38;;
73642;SDS011;61938;48.652;9.292;2024-03-06T12:28:38;27.58;;;15.15;;
73642;SDS011;61938;48.652;9.292;2024-03-06T12:31:04;28.92;;;16.25;;
73642;SDS011;61938;48.652;9.292;2024-03-06T12:33:31;28.73;;;16.20;;
73642;SDS011;61938;48.652;9.292;2024-03-06T12:36:02;26.50;;;15.13;;
73642;SDS011;61938;48.652;9.292;2024-03-06T12:38:29;25.50;;;14.90;;
73642;SDS011;61938;48.652;9.292;2024-03-06T12:40:55;30.10;;;16.05;;
73642;SDS011;61938;48.652;9.292;2024-03-06T12:43:20;28.35;;;15.55;;
73642;SDS011;61938;48.652;9.292;2024-03-06T12:45:46;24.23;;;14.18;;
73642;SDS011;61938;48.652;9.292;2024-03-06T12:48:12;28.60;;;16.05;;
73642;SDS011;61938;48.652;9.292;2024-03-06T12:50:37;30.77;;;17.83;;
73642;SDS011;61938;48.652;9.292;2024-03-06T12:53:03;30.23;;;17.25;;
73642;SDS011;61938;48.652;9.292;2024-03-06T12:55:29;30.20;;;17.05;;
73642;SDS011;61938;48.652;9.292;2024-03-06T12:57:58;35.70;;;19.60;;
73642;SDS011;61938;48.652;9.292;2024-03-06T13:00:24;32.38;;;17.75;;
73642;SDS011;61938;48.652;9.292;2024-03-06T13:02:49;33.75;;;18.23;;
73642;SDS011;61938;48.652;9.292;2024-03-06T13:05:18;32.03;;;18.20;;
73642;SDS011;61938;48.652;9.292;2024-03-06T13:07:44;32.17;;;17.60;;
73642;SDS011;61938;48.652;9.292;2024-03-06T13:10:10;37.78;;;18.15;;
73642;SDS011;61938;48.652;9.292;2024-03-06T13:12:37;33.33;;;17.55;;
73642;SDS011;61938;48.652;9.292;2024-03-06T13:15:03;28.92;;;16.65;;
73642;SDS011;61938;48.652;9.292;2024-03-06T13:17:29;32.05;;;17.40;;
73642;SDS011;61938;48.652;9.292;2024-03-06T13:19:55;34.00;;;18.95;;
73642;SDS011;61938;48.652;9.292;2024-03-06T13:22:21;32.60;;;18.45;;
73642;SDS011;61938;48.652;9.292;2024-03-06T13:24:47;34.38;;;18.35;;
73642;SDS011;61938;48.652;9.292;2024-03-06T13:27:13;35.88;;;19.52;;
73642;SDS011;61938;48.652;9.292;2024-03-06T13:29:39;36.13;;;18.35;;
73642;SDS011;61938;48.652;9.292;2024-03-06T13:32:05;36.28;;;19.15;;
73642;SDS011;61938;48.652;9.292;2024-03-06T13:34:32;36.63;;;18.83;;
73642;SDS011;61938;48.652;9.292;2024-03-06T13:36:58;37.70;;;19.40;;
73642;SDS011;61938;48.652;9.292;2024-03-06T13:39:23;33.03;;;18.02;;
73642;SDS011;61938;48.652;9.292;2024-03-06T13:41:49;34.95;;;17.95;;
73642;SDS011;61938;48.652;9.292;2024-03-06T13:44:15;31.27;;;17.88;;
73642;SDS011;61938;48.652;9.292;2024-03-06T13:46:47;33.20;;;18.25;;
73642;SDS011;61938;48.652;9.292;2024-03-06T13:49:33;32.50;;;17.55;;
73642;SDS011;61938;48.652;9.292;2024-03-06T13:52:03;39.60;;;19.52;;
73642;SDS011;61938;48.652;9.292;2024-03-06T13:54:30;38.33;;;20.05;;
73642;SDS011;61938;48.652;9.292;2024-03-06T13:56:56;38.95;;;18.75;;
73642;SDS011;61938;48.652;9.292;2024-03-06T13:59:26;37.80;;;19.45;;
73642;SDS011;61938;48.652;9.292;2024-03-06T14:01:53;35.45;;;19.23;;
73642;SDS011;61938;48.652;9.292;2024-03-06T14:04:18;33.50;;;18.80;;
73642;SDS011;61938;48.652;9.292;2024-03-06T14:06:44;38.40;;;19.33;;
73642;SDS011;61938;48.652;9.292;2024-03-06T14:09:09;41.97;;;21.70;;
73642;SDS011;61938;48.652;9.292;2024-03-06T14:11:35;43.78;;;21.88;;
73642;SDS011;61938;48.652;9.292;2024-03-06T14:14:00;41.08;;;21.08;;
73642;SDS011;61938;48.652;9.292;2024-03-06T14:16:26;40.28;;;21.60;;
73642;SDS011;61938;48.652;9.292;2024-03-06T14:18:52;38.00;;;20.98;;
73642;SDS011;61938;48.652;9.292;2024-03-06T14:21:18;36.97;;;19.67;;
73642;SDS011;61938;48.652;9.292;2024-03-06T14:23:44;39.20;;;19.15;;
73642;SDS011;61938;48.652;9.292;2024-03-06T14:26:09;37.45;;;20.42;;
73642;SDS011;61938;48.652;9.292;2024-03-06T14:28:35;36.78;;;20.10;;
73642;SDS011;61938;48.652;9.292;2024-03-06T14:31:00;37.63;;;19.45;;
73642;SDS011;61938;48.652;9.292;2024-03-06T14:33:26;38.38;;;20.40;;
73642;SDS011;61938;48.652;9.292;2024-03-06T14:35:52;37.13;;;19.90;;
73642;SDS011;61938;48.652;9.292;2024-03-06T14:38:17;36.17;;;20.02;;
73642;SDS011;61938;48.652;9.292;2024-03-06T14:40:43;37.50;;;20.70;;